Time;durP1;ratioP1;P1;durP2;ratioP2;P2;SDS_P1;SDS_P2;PMS_P1;PMS_P2;Temp;Humidity;BMP_temperature;BMP_pressure;BME280_temperature;BME280_humidity;BME280_pressure;Samples;Min_cycle;Max_cycle;Signal;HPM_P1;HPM_P2
2022/05/21 00:01:04;;;;;;;1.87;0.90;;;;;;;16.99;86.26;99945.13;1751659;81;21070;-76
2022/05/21 00:03:31;;;;;;;1.35;1.00;;;;;;;16.93;86.15;99950.83;1723641;83;21060;-76
2022/05/21 00:05:58;;;;;;;3.08;1.07;;;;;;;16.89;86.47;99952.02;1751798;81;21115;-77
2022/05/21 00:08:25;;;;;;;3.25;1.30;;;;;;;16.84;86.43;99961.59;1723533;83;21052;-76
2022/05/21 00:10:52;;;;;;;3.83;1.65;;;;;;;16.80;86.53;99956.16;1750990;81;21036;-77
2022/05/21 00:13:19;;;;;;;2.75;1.17;;;;;;;16.70;86.33;99941.83;1734090;81;21052;-77
2022/05/21 00:15:47;;;;;;;2.33;1.10;;;;;;;16.65;86.85;99924.94;1724659;83;21256;-76
2022/05/21 00:18:14;;;;;;;2.72;1.27;;;;;;;16.65;87.04;99910.88;1724817;83;21122;-77
2022/05/21 00:20:47;;;;;;;2.10;1.10;;;;;;;16.63;87.27;99908.35;1724423;83;21103;-76
2022/05/21 00:23:29;;;;;;;1.25;1.07;;;;;;;16.63;87.41;99924.71;1724790;83;21000;-77
2022/05/21 00:26:06;;;;;;;2.75;1.50;;;;;;;16.63;87.41;99924.71;1724650;83;21503;-77
2022/05/21 00:28:37;;;;;;;2.37;1.17;;;;;;;16.59;87.53;99933.80;1724908;83;21132;-77
2022/05/21 00:31:05;;;;;;;2.45;1.50;;;;;;;16.57;87.58;99944.95;1724516;83;21082;-77
2022/05/21 00:33:34;;;;;;;2.17;1.50;;;;;;;16.52;87.42;99954.55;1751273;82;21051;-77
2022/05/21 00:36:02;;;;;;;2.37;1.20;;;;;;;16.49;87.72;99958.73;1751143;82;21098;-77
2022/05/21 00:38:29;;;;;;;4.55;1.57;;;;;;;16.45;87.60;99952.78;1751476;81;21058;-77
2022/05/21 00:40:56;;;;;;;2.10;1.40;;;;;;;16.41;87.48;99962.37;1751166;82;21090;-77
2022/05/21 00:43:52;;;;;;;1.60;1.30;;;;;;;16.23;87.32;99957.36;1751548;81;21712;-77
2022/05/21 00:46:23;;;;;;;1.82;1.37;;;;;;;16.23;87.32;99957.36;1751067;82;21016;-78
2022/05/21 00:49:13;;;;;;;3.58;1.82;;;;;;;16.23;88.00;99958.69;1751551;82;21051;-77
2022/05/21 00:52:10;;;;;;;6.60;1.87;;;;;;;16.24;88.29;99955.59;1751231;81;21036;-79
2022/05/21 00:54:43;;;;;;;3.20;2.33;;;;;;;16.20;88.53;99955.41;1751473;81;21612;-78
2022/05/21 00:57:24;;;;;;;5.25;2.60;;;;;;;16.21;88.94;99952.67;1751290;81;21119;-78
2022/05/21 00:59:59;;;;;;;4.28;2.67;;;;;;;16.24;89.23;99944.53;1751427;82;21044;-77
2022/05/21 01:02:55;;;;;;;2.85;2.47;;;;;;;16.27;89.52;99944.80;1751227;81;20909;-78
2022/05/21 01:05:26;;;;;;;4.00;2.90;;;;;;;16.30;89.66;99947.23;1751571;81;21020;-77
2022/05/21 01:07:57;;;;;;;4.00;3.00;;;;;;;16.31;89.73;99952.89;1751275;82;21027;-78
2022/05/21 01:10:28;;;;;;;5.53;3.45;;;;;;;16.32;89.86;99951.08;1751235;81;21703;-78
2022/05/21 01:12:57;;;;;;;3.67;3.22;;;;;;;16.35;90.01;99953.52;1751149;82;21115;-77
2022/05/21 01:15:35;;;;;;;6.83;3.73;;;;;;;16.37;90.19;99955.59;1751812;81;20992;-77
2022/05/21 01:18:05;;;;;;;5.30;3.60;;;;;;;16.39;90.40;99957.66;1751278;81;21365;-77
2022/05/21 01:20:44;;;;;;;4.03;3.42;;;;;;;16.44;90.57;99958.20;1751599;81;21043;-77
2022/05/21 01:23:13;;;;;;;4.28;3.62;;;;;;;16.50;90.65;99964.38;1751232;82;21159;-77
2022/05/21 01:25:43;;;;;;;5.28;3.50;;;;;;;16.57;90.74;99959.05;1751435;81;21090;-77
2022/05/21 01:28:14;;;;;;;7.08;4.03;;;;;;;16.63;90.70;99966.56;1751586;82;21348;-77
2022/05/21 01:30:46;;;;;;;5.58;3.92;;;;;;;16.71;90.93;99978.79;1751519;81;21043;-80
2022/05/21 01:33:16;;;;;;;6.92;4.37;;;;;;;16.84;91.03;99981.44;1750180;81;21039;-77
2022/05/21 01:35:46;;;;;;;4.83;3.80;;;;;;;16.84;91.03;99981.44;1751267;82;21136;-76
2022/05/21 01:38:16;;;;;;;6.40;4.20;;;;;;;16.90;91.10;99979.72;1751610;81;21118;-76
2022/05/21 01:40:46;;;;;;;6.28;3.65;;;;;;;16.95;90.96;99988.16;1751292;82;21009;-78
2022/05/21 01:45:59;;;;;;;5.05;3.87;;;;;;;17.02;90.63;99995.69;1751429;81;21027;-78
2022/05/21 01:48:30;;;;;;;4.00;3.58;;;;;;;17.04;90.67;100009.16;1751340;82;21114;-79
2022/05/21 01:50:58;;;;;;;5.95;3.90;;;;;;;17.08;90.46;100012.47;1751352;81;21044;-81
2022/05/21 01:53:27;;;;;;;5.95;4.15;;;;;;;17.08;90.47;100008.49;1751290;82;21536;-81
2022/05/21 01:55:57;;;;;;;5.62;4.00;;;;;;;17.10;90.47;100014.53;1751593;81;21086;-79
2022/05/21 01:58:25;;;;;;;7.80;3.85;;;;;;;17.09;90.33;100013.66;1751370;82;21075;-80
2022/05/21 02:00:52;;;;;;;4.97;4.08;;;;;;;17.11;90.55;100016.22;1751485;81;21730;-78
2022/05/21 02:03:19;;;;;;;4.40;4.00;;;;;;;17.12;90.48;100033.30;1751141;81;21485;-81
2022/05/21 02:05:47;;;;;;;5.25;4.35;;;;;;;17.09;90.23;100035.33;1751607;81;21075;-78
2022/05/21 02:08:16;;;;;;;4.87;3.87;;;;;;;17.09;90.29;100049.41;1751213;81;21470;-79
2022/05/21 02:10:44;;;;;;;4.80;3.60;;;;;;;17.09;90.12;100049.89;1725391;82;21561;-78
2022/05/21 02:13:22;;;;;;;4.95;3.40;;;;;;;17.06;90.13;100049.63;1749579;82;21950;-78
2022/05/21 02:15:49;;;;;;;4.45;3.47;;;;;;;17.05;89.89;100052.41;1749551;82;21056;-78
2022/05/21 02:18:17;;;;;;;5.78;3.62;;;;;;;16.99;89.72;100069.56;1749961;82;21027;-78
2022/05/21 02:20:48;;;;;;;4.80;3.35;;;;;;;16.97;89.70;100049.44;1749916;82;20916;-77
2022/05/21 02:23:17;;;;;;;4.03;3.47;;;;;;;16.93;89.48;100065.98;1748886;81;21004;-77
2022/05/21 02:25:45;;;;;;;4.92;3.60;;;;;;;16.90;89.50;100064.42;1749852;82;21772;-77
2022/05/21 02:28:13;;;;;;;5.40;3.15;;;;;;;16.88;89.38;100094.12;1749785;82;21023;-79
2022/05/21 02:30:41;;;;;;;9.30;3.30;;;;;;;16.80;89.21;100079.71;1749660;82;21055;-78
2022/05/21 02:33:08;;;;;;;4.40;3.05;;;;;;;16.76;88.80;100085.63;1749904;82;21040;-77
2022/05/21 02:35:36;;;;;;;3.62;2.72;;;;;;;16.65;88.34;100104.04;1749736;82;21106;-86
2022/05/21 02:40:48;;;;;;;3.20;2.77;;;;;;;16.65;88.29;100124.73;1749563;82;21657;-78
2022/05/21 02:43:15;;;;;;;7.12;2.85;;;;;;;16.57;88.00;100133.67;1749804;82;21059;-81
2022/05/21 02:45:43;;;;;;;7.90;2.00;;;;;;;16.49;87.63;100111.69;1749615;82;21695;-86
2022/05/21 02:48:09;;;;;;;2.98;1.80;;;;;;;16.38;87.01;100138.45;1749973;82;21542;-82
2022/05/21 02:50:36;;;;;;;1.85;1.32;;;;;;;16.31;86.58;100159.17;1749821;82;22085;-84
2022/05/21 02:53:07;;;;;;;4.53;1.17;;;;;;;16.21;86.15;100166.87;1749495;82;20991;-81
2022/05/21 02:55:34;;;;;;;3.17;0.90;;;;;;;16.09;85.64;100167.63;1749844;82;21031;-87
2022/05/21 02:58:01;;;;;;;1.05;0.80;;;;;;;16.01;85.26;100182.66;1749718;82;21062;-80
2022/05/21 03:00:31;;;;;;;2.67;0.88;;;;;;;15.94;84.93;100181.84;1749841;82;21284;-82
2022/05/21 03:03:00;;;;;;;4.15;0.75;;;;;;;15.86;84.56;100192.87;1749739;82;22005;-81
2022/05/21 03:05:31;;;;;;;3.35;0.80;;;;;;;15.81;84.38;100201.56;1749462;82;21068;-82
2022/05/21 03:08:00;;;;;;;1.55;0.70;;;;;;;15.80;84.26;100191.95;1749848;82;20981;-81
2022/05/21 03:10:30;;;;;;;1.95;0.88;;;;;;;15.76;84.00;100205.80;1751523;80;21043;-79
2022/05/21 03:13:01;;;;;;;2.70;0.70;;;;;;;15.73;83.78;100205.99;1754882;81;21043;-79
2022/05/21 03:15:36;;;;;;;0.85;0.70;;;;;;;15.66;83.49;100207.30;1754402;81;21108;-79
2022/05/21 03:18:07;;;;;;;3.72;0.78;;;;;;;15.66;83.49;100207.30;1754693;81;21509;-80
2022/05/21 03:20:35;;;;;;;1.52;0.70;;;;;;;15.65;83.26;100201.62;1755056;81;21008;-81
2022/05/21 03:23:02;;;;;;;2.27;0.90;;;;;;;15.61;83.20;100208.05;1754716;81;21744;-81
2022/05/21 03:25:30;;;;;;;1.65;1.00;;;;;;;15.59;82.89;100218.69;1755032;81;21055;-81
2022/05/21 03:27:57;;;;;;;2.35;0.82;;;;;;;15.57;82.86;100211.80;1754608;81;21865;-81
2022/05/21 03:30:28;;;;;;;1.72;0.80;;;;;;;15.56;82.99;100218.04;1754817;81;21019;-81
2022/05/21 03:32:56;;;;;;;3.67;0.95;;;;;;;15.54;82.75;100220.76;1754726;81;21051;-80
2022/05/21 03:35:24;;;;;;;2.25;0.93;;;;;;;15.52;82.54;100220.47;1754642;81;21047;-80
2022/05/21 03:37:53;;;;;;;0.98;0.80;;;;;;;15.50;82.48;100239.55;1754716;81;21057;-78
2022/05/21 03:40:28;;;;;;;3.33;0.80;;;;;;;15.49;82.06;100236.51;1755041;80;21040;-80
2022/05/21 03:42:55;;;;;;;1.57;0.93;;;;;;;15.49;81.94;100231.22;1754507;81;21103;-80
2022/05/21 03:45:22;;;;;;;1.67;0.60;;;;;;;15.47;81.61;100227.37;1754602;81;21062;-80
2022/05/21 03:47:51;;;;;;;1.20;0.60;;;;;;;15.49;81.59;100241.79;1754992;81;21488;-80
2022/05/21 03:50:23;;;;;;;2.45;0.80;;;;;;;15.50;81.57;100232.47;1754604;81;21051;-81
2022/05/21 03:52:50;;;;;;;0.98;0.80;;;;;;;15.51;81.36;100247.36;1754905;81;21062;-80
2022/05/21 03:55:18;;;;;;;3.22;0.82;;;;;;;15.50;81.13;100244.36;1754657;81;21051;-82
2022/05/21 03:57:46;;;;;;;2.57;1.10;;;;;;;15.46;80.87;100252.55;1754878;81;21530;-81
2022/05/21 04:00:16;;;;;;;1.95;0.80;;;;;;;15.43;80.67;100247.45;1754727;81;21059;-83
2022/05/21 04:02:43;;;;;;;0.98;0.80;;;;;;;15.39;80.50;100252.91;1754884;81;21090;-80
2022/05/21 04:05:13;;;;;;;3.33;0.82;;;;;;;15.36;80.40;100253.10;1754572;81;22105;-78
2022/05/21 04:07:40;;;;;;;3.08;0.80;;;;;;;15.34;80.37;100268.66;1754872;80;21043;-81
2022/05/21 04:10:10;;;;;;;1.98;0.80;;;;;;;15.33;80.19;100255.92;1781882;80;21632;-80
2022/05/21 04:12:37;;;;;;;2.60;0.70;;;;;;;15.33;80.11;100255.92;1776464;80;21051;-85
2022/05/21 04:15:07;;;;;;;1.25;0.60;;;;;;;15.32;79.84;100254.68;1760608;80;21048;-79
2022/05/21 04:17:35;;;;;;;2.65;0.62;;;;;;;15.29;79.60;100281.27;1755737;80;21124;-83
2022/05/21 04:20:06;;;;;;;0.62;0.50;;;;;;;15.27;79.58;100268.17;1781552;80;21275;-80
2022/05/21 04:22:34;;;;;;;4.05;0.60;;;;;;;15.24;79.38;100281.56;1782585;80;21019;-86
2022/05/21 04:25:01;;;;;;;2.25;0.60;;;;;;;15.20;79.07;100268.14;1782439;80;21051;-84
2022/05/21 04:27:28;;;;;;;1.02;0.60;;;;;;;15.15;78.81;100273.67;1751169;81;21009;-85
2022/05/21 04:29:55;;;;;;;3.80;0.70;;;;;;;15.12;78.67;100271.22;1754904;81;22165;-85
2022/05/21 04:32:22;;;;;;;5.50;0.60;;;;;;;15.10;78.65;100285.44;1782397;80;21043;-82
2022/05/21 04:34:49;;;;;;;1.90;0.53;;;;;;;15.05;78.33;100287.05;1746404;81;21558;-81
2022/05/21 04:37:19;;;;;;;0.80;0.60;;;;;;;15.02;78.36;100279.75;1724586;81;21498;-83
2022/05/21 04:39:46;;;;;;;1.47;0.50;;;;;;;15.01;78.15;100288.63;1723244;80;21054;-84
2022/05/21 04:42:13;;;;;;;1.00;0.60;;;;;;;14.98;78.06;100297.56;1761703;80;21192;-82
2022/05/21 04:44:41;;;;;;;1.72;0.53;;;;;;;14.97;77.87;100311.70;1763403;80;21616;-82
2022/05/21 04:47:08;;;;;;;1.80;0.60;;;;;;;14.95;77.80;100302.55;1761741;80;21020;-85
2022/05/21 04:49:36;;;;;;;2.12;0.60;;;;;;;14.95;77.58;100310.94;1761997;80;21004;-79
2022/05/21 04:52:05;;;;;;;4.00;0.57;;;;;;;14.91;77.37;100302.83;1766323;80;21020;-83
2022/05/21 04:54:32;;;;;;;1.32;0.50;;;;;;;14.88;77.15;100318.36;1751756;80;21111;-87
2022/05/21 04:56:59;;;;;;;2.50;0.50;;;;;;;14.88;77.08;100310.45;1742929;80;21040;-86
2022/05/21 04:59:26;;;;;;;1.95;0.60;;;;;;;14.91;77.04;100301.51;1746087;80;21596;-79
2022/05/21 05:01:53;;;;;;;1.55;0.45;;;;;;;14.94;76.99;100302.65;1738995;80;21548;-80
2022/05/21 05:04:20;;;;;;;1.75;0.50;;;;;;;14.99;76.78;100317.73;1755818;80;21020;-87
2022/05/21 05:06:47;;;;;;;0.95;0.50;;;;;;;15.05;76.60;100310.80;1737992;80;21953;-83
2022/05/21 05:09:17;;;;;;;1.05;0.65;;;;;;;15.10;76.46;100321.95;1764883;80;20973;-86
2022/05/21 05:11:44;;;;;;;7.00;0.60;;;;;;;15.16;76.30;100316.32;1783142;80;21015;-82
2022/05/21 05:14:12;;;;;;;1.70;0.60;;;;;;;15.22;76.18;100332.27;1777568;80;21055;-85
2022/05/21 05:16:50;;;;;;;2.15;0.70;;;;;;;15.30;76.08;100337.97;1783289;80;21055;-85
2022/05/21 05:19:30;;;;;;;1.07;0.70;;;;;;;15.36;75.79;100339.41;1769514;80;21059;-84
2022/05/21 05:22:00;;;;;;;1.02;0.70;;;;;;;15.36;75.39;100340.25;1793808;79;21581;-83
2022/05/21 05:24:27;;;;;;;2.95;0.80;;;;;;;15.33;74.96;100340.43;1760062;80;21067;-80
2022/05/21 05:26:55;;;;;;;1.50;0.62;;;;;;;15.32;74.84;100338.70;1754134;81;21020;-80
2022/05/21 05:29:22;;;;;;;0.82;0.60;;;;;;;15.31;74.71;100346.73;1754540;81;21288;-82
2022/05/21 05:31:50;;;;;;;1.82;0.72;;;;;;;15.29;74.47;100365.77;1754115;81;21122;-79
2022/05/21 05:34:17;;;;;;;1.42;0.70;;;;;;;15.21;73.98;100368.00;1754257;81;21031;-80
2022/05/21 05:36:44;;;;;;;0.93;0.75;;;;;;;15.11;73.76;100361.08;1754190;81;21024;-78
2022/05/21 05:39:11;;;;;;;2.75;0.65;;;;;;;15.06;73.74;100371.05;1754335;81;21019;-83
2022/05/21 05:41:42;;;;;;;2.45;0.70;;;;;;;15.05;73.89;100364.07;1754419;81;21203;-90
2022/05/21 05:44:09;;;;;;;2.05;0.60;;;;;;;15.14;73.93;100355.63;1754246;81;21131;-82
2022/05/21 05:46:36;;;;;;;2.47;0.93;;;;;;;15.25;73.99;100347.09;1753893;81;21004;-88
2022/05/21 05:49:03;;;;;;;2.35;0.70;;;;;;;15.33;73.72;100356.27;1754153;81;21497;-82
2022/05/21 05:51:30;;;;;;;2.87;0.60;;;;;;;15.38;73.63;100352.91;1754388;81;20992;-85
2022/05/21 05:53:57;;;;;;;1.07;0.60;;;;;;;15.40;73.29;100354.97;1754364;81;21588;-83
2022/05/21 05:56:24;;;;;;;1.25;0.90;;;;;;;15.37;73.08;100356.47;1754177;81;21119;-86
2022/05/21 06:01:38;;;;;;;2.02;0.80;;;;;;;15.31;72.77;100388.98;1754247;81;21054;-90
2022/05/21 06:04:05;;;;;;;1.57;1.20;;;;;;;15.25;72.86;100378.30;1754241;81;20947;-82
2022/05/21 06:06:32;;;;;;;1.30;1.07;;;;;;;15.21;72.63;100391.76;1754351;81;21023;-89
2022/05/21 06:08:59;;;;;;;1.47;0.95;;;;;;;15.13;72.50;100373.70;1754228;81;21126;-82
2022/05/21 06:11:27;;;;;;;2.67;1.15;;;;;;;15.08;72.37;100373.14;1754265;80;21670;-84
2022/05/21 06:13:53;;;;;;;1.90;1.10;;;;;;;15.03;72.49;100379.98;1754709;81;21004;-86
2022/05/21 06:16:21;;;;;;;1.20;1.05;;;;;;;15.01;72.44;100389.77;1754727;81;21035;-88
2022/05/21 06:18:50;;;;;;;4.00;1.10;;;;;;;14.96;72.25;100387.84;1755033;80;21003;-84
2022/05/21 06:21:17;;;;;;;2.35;0.90;;;;;;;14.92;72.39;100388.49;1763939;79;21070;-86
2022/05/21 06:23:44;;;;;;;2.20;0.90;;;;;;;14.95;72.60;100388.31;1801965;79;20991;-86
2022/05/21 06:26:13;;;;;;;1.72;0.78;;;;;;;15.04;72.60;100390.06;1802003;79;21589;-88
2022/05/21 06:28:40;;;;;;;1.87;0.80;;;;;;;15.13;72.46;100386.90;1802414;79;21462;-82
2022/05/21 06:31:07;;;;;;;2.55;0.80;;;;;;;15.21;72.49;100392.60;1802077;79;21064;-81
2022/05/21 06:33:34;;;;;;;3.33;0.80;;;;;;;15.26;72.35;100392.35;1802283;79;21521;-82
2022/05/21 06:36:14;;;;;;;1.42;0.80;;;;;;;15.31;72.08;100378.42;1802038;79;21025;-85
2022/05/21 06:38:44;;;;;;;3.72;0.70;;;;;;;15.32;71.72;100386.24;1802333;79;21013;-84
2022/05/21 06:41:12;;;;;;;1.35;0.70;;;;;;;15.34;71.77;100394.09;1802447;79;21096;-83
2022/05/21 06:43:39;;;;;;;2.25;0.70;;;;;;;15.38;71.35;100376.67;1774400;79;21059;-85
2022/05/21 06:46:07;;;;;;;1.57;0.80;;;;;;;15.42;71.42;100374.70;1769965;79;21177;-85
2022/05/21 06:48:34;;;;;;;2.33;0.50;;;;;;;15.51;71.55;100419.06;1782123;79;21055;-83
2022/05/21 06:51:05;;;;;;;0.82;0.40;;;;;;;15.60;71.06;100393.45;1750615;80;22201;-83
2022/05/21 06:53:34;;;;;;;1.10;0.50;;;;;;;15.71;70.91;100398.59;1771224;80;20997;-79
2022/05/21 06:56:08;;;;;;;1.40;0.60;;;;;;;15.78;70.08;100421.94;1739955;82;21092;-84
2022/05/21 06:58:36;;;;;;;0.98;0.50;;;;;;;15.81;69.69;100417.80;1738012;82;21119;-79
2022/05/21 07:01:03;;;;;;;1.60;0.50;;;;;;;15.82;69.49;100414.23;1769861;81;21040;-87
2022/05/21 07:03:30;;;;;;;3.67;0.62;;;;;;;15.84;69.00;100423.37;1770307;81;21021;-87
2022/05/21 07:08:44;;;;;;;1.05;0.50;;;;;;;15.86;68.53;100426.78;1762137;80;21099;-89
2022/05/21 07:11:13;;;;;;;3.22;0.60;;;;;;;15.93;67.93;100421.50;1758669;80;21942;-85
2022/05/21 07:13:40;;;;;;;1.98;0.85;;;;;;;15.90;67.53;100427.45;1739097;80;21045;-89
2022/05/21 07:16:07;;;;;;;4.10;0.70;;;;;;;15.82;66.89;100435.81;1727005;83;21057;-83
2022/05/21 07:18:34;;;;;;;1.30;0.50;;;;;;;15.76;66.65;100436.19;1750992;80;20996;-92
2022/05/21 07:21:01;;;;;;;2.22;0.57;;;;;;;15.73;66.53;100430.60;1727548;83;21052;-85
2022/05/21 07:23:28;;;;;;;7.62;1.10;;;;;;;15.77;66.45;100440.07;1757593;81;21147;-89
2022/05/21 07:25:55;;;;;;;1.72;0.70;;;;;;;15.86;66.55;100443.13;1727644;83;21032;-89
2022/05/21 07:28:22;;;;;;;2.83;0.50;;;;;;;15.95;66.05;100446.54;1757599;81;21060;-80
2022/05/21 07:30:52;;;;;;;4.28;0.68;;;;;;;16.02;66.14;100451.38;1727566;83;21499;-87
2022/05/21 07:33:21;;;;;;;1.27;0.68;;;;;;;16.08;65.77;100457.26;1756899;81;21538;-85
2022/05/21 07:35:53;;;;;;;2.62;0.60;;;;;;;16.16;65.24;100461.63;1726437;83;21184;-95
2022/05/21 07:38:20;;;;;;;3.52;0.88;;;;;;;16.24;64.98;100454.09;1757653;81;21060;-85
2022/05/21 07:40:50;;;;;;;1.67;1.10;;;;;;;16.31;65.05;100453.23;1727421;82;21050;-84
2022/05/21 07:43:30;;;;;;;2.30;0.75;;;;;;;16.28;64.25;100477.59;1746116;81;21032;-81
2022/05/21 07:45:58;;;;;;;1.32;0.68;;;;;;;16.24;63.93;100472.59;1727581;82;21155;-82
2022/05/21 07:48:27;;;;;;;1.42;0.50;;;;;;;16.19;63.81;100489.20;1757544;81;21208;-81
2022/05/21 07:50:58;;;;;;;4.17;0.60;;;;;;;16.18;63.58;100468.49;1727342;83;21028;-80
2022/05/21 07:53:31;;;;;;;1.32;0.65;;;;;;;16.20;63.56;100485.61;1757623;81;21040;-83
2022/05/21 07:55:59;;;;;;;3.77;0.70;;;;;;;16.24;63.38;100468.63;1717872;81;22149;-81
2022/05/21 07:58:31;;;;;;;3.80;0.80;;;;;;;16.24;63.38;100468.63;1758412;81;20992;-79
2022/05/21 08:01:00;;;;;;;1.98;0.70;;;;;;;16.25;62.86;100488.36;1759448;81;21351;-82
2022/05/21 08:03:29;;;;;;;3.40;0.65;;;;;;;16.26;62.72;100472.02;1757830;81;21414;-85
2022/05/21 08:05:58;;;;;;;2.45;0.80;;;;;;;16.27;62.15;100484.31;1734666;81;22318;-81
2022/05/21 08:08:27;;;;;;;2.65;0.60;;;;;;;16.38;61.90;100495.11;1730457;80;21486;-83
2022/05/21 08:10:59;;;;;;;1.37;0.70;;;;;;;16.38;61.90;100497.75;1718064;81;21114;-87
2022/05/21 08:13:30;;;;;;;1.95;0.95;;;;;;;16.40;60.34;100501.13;1774371;80;21167;-83
2022/05/21 08:15:57;;;;;;;4.70;1.07;;;;;;;16.43;61.13;100504.06;1784510;79;21084;-83
2022/05/21 08:18:26;;;;;;;2.70;0.68;;;;;;;16.48;60.93;100516.55;1771369;79;21497;-82
2022/05/21 08:20:54;;;;;;;1.12;0.72;;;;;;;16.47;60.07;100504.28;1790388;80;21031;-84
2022/05/21 08:28:54;;;;;;;2.05;0.68;;;;;;;16.40;60.13;100527.59;1790320;80;21573;-79
2022/05/21 08:31:21;;;;;;;6.20;1.00;;;;;;;16.40;59.79;100504.25;1790435;80;21020;-81
2022/05/21 08:33:48;;;;;;;2.05;0.70;;;;;;;16.45;59.72;100518.06;1790237;79;21012;-78
2022/05/21 08:36:15;;;;;;;6.40;0.82;;;;;;;16.43;59.49;100543.30;1790573;80;21574;-82
2022/05/21 08:38:42;;;;;;;3.75;0.85;;;;;;;16.40;59.20;100539.97;1790234;80;22002;-79
2022/05/21 08:41:31;;;;;;;4.22;0.98;;;;;;;16.45;59.30;100537.43;1790369;79;21541;-89
2022/05/21 08:44:12;;;;;;;1.80;0.85;;;;;;;16.54;59.63;100535.18;1790198;79;21072;-81
2022/05/21 08:47:13;;;;;;;2.25;0.90;;;;;;;16.62;59.55;100522.34;1775669;79;21090;-80
2022/05/21 08:49:54;;;;;;;1.50;0.60;;;;;;;16.68;58.97;100542.69;1772316;80;21439;-78
2022/05/21 08:52:45;;;;;;;1.80;0.80;;;;;;;16.69;59.30;100534.28;1782791;80;21121;-78
2022/05/21 08:55:18;;;;;;;1.92;0.70;;;;;;;16.75;58.69;100547.13;1782599;80;21039;-79
2022/05/21 08:57:53;;;;;;;2.55;0.78;;;;;;;16.78;58.27;100534.22;1782438;80;21047;-78
2022/05/21 09:00:28;;;;;;;2.27;0.75;;;;;;;16.80;58.06;100542.92;1782683;80;20989;-78
2022/05/21 09:02:55;;;;;;;2.87;0.80;;;;;;;16.86;58.20;100543.88;1782390;80;21095;-77
2022/05/21 09:05:26;;;;;;;1.85;0.85;;;;;;;17.08;58.46;100552.20;1751989;80;21173;-80
2022/05/21 09:08:10;;;;;;;7.05;0.75;;;;;;;17.20;57.85;100541.78;1782418;80;21024;-81
2022/05/21 09:11:06;;;;;;;2.67;0.88;;;;;;;17.15;57.44;100538.97;1782196;80;21036;-82
2022/05/21 09:13:44;;;;;;;1.82;0.50;;;;;;;17.17;57.26;100547.64;1782836;80;21580;-85
2022/05/21 09:19:08;;;;;;;2.70;0.80;;;;;;;17.21;57.38;100551.42;1748567;82;22107;-83
2022/05/21 09:21:41;;;;;;;1.60;1.00;;;;;;;17.25;57.59;100541.03;1735420;82;20963;-80
2022/05/21 09:24:09;;;;;;;2.50;1.25;;;;;;;17.35;57.82;100558.91;1748834;82;20974;-82
2022/05/21 09:26:50;;;;;;;1.98;0.70;;;;;;;17.43;57.17;100546.51;1736008;82;21091;-83
2022/05/21 09:29:28;;;;;;;3.58;0.80;;;;;;;17.46;56.95;100549.41;1748253;82;21083;-82
2022/05/21 09:31:57;;;;;;;2.08;0.80;;;;;;;17.49;57.07;100555.38;1734013;82;21339;-84
2022/05/21 09:34:31;;;;;;;4.03;0.78;;;;;;;17.55;56.48;100545.72;1735735;82;21012;-82
2022/05/21 09:37:00;;;;;;;1.85;0.70;;;;;;;17.45;56.18;100551.21;1735557;82;21051;-85
2022/05/21 09:39:39;;;;;;;3.27;0.70;;;;;;;17.49;56.19;100535.99;1735702;82;21004;-81
2022/05/21 09:45:23;;;;;;;1.00;0.60;;;;;;;17.84;55.85;100545.17;1735571;82;21149;-83
2022/05/21 09:47:54;;;;;;;2.60;0.75;;;;;;;17.92;55.62;100551.31;1748399;82;21430;-81
2022/05/21 09:50:26;;;;;;;5.28;0.95;;;;;;;17.96;55.38;100556.81;1735727;82;21048;-81
2022/05/21 09:52:53;;;;;;;2.20;0.98;;;;;;;17.97;55.47;100559.83;1748582;82;21068;-80
2022/05/21 09:55:26;;;;;;;1.60;0.60;;;;;;;18.02;55.29;100555.56;1735549;82;21535;-78
2022/05/21 09:57:54;;;;;;;1.50;0.62;;;;;;;18.13;55.40;100561.48;1748877;80;21279;-86
2022/05/21 10:00:37;;;;;;;5.95;1.07;;;;;;;18.23;55.10;100570.52;1730307;81;22262;-79
2022/05/21 10:03:10;;;;;;;2.20;0.85;;;;;;;18.19;54.06;100573.86;1780306;80;21099;-80
2022/05/21 10:05:49;;;;;;;1.02;0.60;;;;;;;18.18;54.12;100573.50;1763161;80;21020;-77
2022/05/21 10:11:28;;;;;;;1.55;0.60;;;;;;;18.51;54.33;100578.80;1763742;81;21371;-78
2022/05/21 10:14:05;;;;;;;1.98;0.70;;;;;;;18.76;54.14;100578.50;1765743;80;21631;-80
2022/05/21 10:16:45;;;;;;;2.75;0.80;;;;;;;18.92;53.33;100599.08;1766339;81;21040;-78
2022/05/21 10:19:18;;;;;;;;;;;;;;;18.92;52.84;100583.98;1768614;81;21481;-82
2022/05/21 10:22:00;;;;;;;2.58;0.60;;;;;;;19.11;52.64;100586.70;1765401;81;21330;-81
2022/05/21 10:24:44;;;;;;;3.50;1.02;;;;;;;19.03;52.40;100575.28;1766262;81;21084;-81
2022/05/21 10:27:50;;;;;;;3.98;0.75;;;;;;;19.11;52.35;100578.73;1764512;81;21052;-83
2022/05/21 10:30:38;;;;;;;1.77;0.70;;;;;;;19.12;52.42;100570.67;1765138;81;21056;-84
2022/05/21 10:33:23;;;;;;;1.27;0.65;;;;;;;19.41;52.43;100577.05;1766284;81;21039;-80
2022/05/21 10:36:04;;;;;;;1.45;0.60;;;;;;;19.72;52.13;100568.23;1766047;81;21030;-79
2022/05/21 10:39:00;;;;;;;3.50;0.80;;;;;;;19.77;51.64;100569.59;1766449;81;21159;-81
2022/05/21 10:41:40;;;;;;;3.20;0.70;;;;;;;19.87;50.82;100562.27;1766695;81;20977;-77
2022/05/21 10:45:04;;;;;;;4.08;1.10;;;;;;;19.85;50.27;100573.52;1765000;81;21103;-76
2022/05/21 10:48:10;;;;;;;1.15;0.50;;;;;;;19.67;50.21;100568.55;1766796;81;21055;-77
2022/05/21 10:51:06;;;;;;;2.65;0.70;;;;;;;19.72;50.49;100581.05;1765612;81;21497;-79
2022/05/21 10:54:15;;;;;;;2.65;0.60;;;;;;;20.21;50.52;100573.94;1766664;81;21735;-77
2022/05/21 10:57:15;;;;;;;2.37;0.60;;;;;;;20.62;49.91;100565.52;1765165;81;21043;-77
2022/05/21 11:00:00;;;;;;;2.72;0.85;;;;;;;21.01;48.91;100570.56;1766556;81;21549;-77
2022/05/21 11:03:24;;;;;;;1.75;0.80;;;;;;;21.27;48.79;100551.17;1743066;80;21043;-80
2022/05/21 11:06:22;;;;;;;1.27;0.60;;;;;;;21.51;48.68;100561.73;1756751;80;20985;-81
2022/05/21 11:09:29;;;;;;;4.65;1.22;;;;;;;21.87;48.73;100559.23;1773802;80;22000;-78
2022/05/21 11:12:07;;;;;;;4.55;0.70;;;;;;;21.70;47.72;100555.27;1782387;80;21004;-79
2022/05/21 11:14:42;;;;;;;3.37;0.80;;;;;;;21.48;47.38;100560.16;1746233;81;21049;-82
2022/05/21 11:17:35;;;;;;;0.93;0.50;;;;;;;21.16;46.87;100571.52;1755864;81;21044;-80
2022/05/21 11:20:28;;;;;;;2.12;0.70;;;;;;;20.79;46.83;100557.56;1750323;81;21002;-78
2022/05/21 11:23:39;;;;;;;2.22;0.50;;;;;;;20.40;46.73;100578.25;1757419;81;21128;-79
2022/05/21 11:26:23;;;;;;;1.92;0.60;;;;;;;20.06;47.05;100570.59;1757962;81;20982;-76
2022/05/21 11:28:56;;;;;;;2.77;0.60;;;;;;;19.80;47.42;100563.20;1777833;80;21068;-80
2022/05/21 11:37:37;;;;;;;3.58;0.95;;;;;;;19.26;47.94;100565.72;1785743;80;40059;-76
2022/05/21 11:40:09;;;;;;;1.75;0.50;;;;;;;19.06;47.85;100576.88;1790970;80;21017;-77
2022/05/21 11:42:37;;;;;;;2.25;0.55;;;;;;;18.90;47.93;100573.09;1709020;82;21037;-80
2022/05/21 11:45:15;;;;;;;5.10;0.78;;;;;;;18.81;48.23;100579.89;1738516;81;21002;-80
2022/05/21 11:47:58;;;;;;;3.00;1.02;;;;;;;18.77;48.38;100574.92;1734345;82;21652;-77
2022/05/21 11:50:30;;;;;;;3.15;0.60;;;;;;;18.76;48.56;100570.09;1736876;82;21131;-78
2022/05/21 11:53:27;;;;;;;3.37;0.50;;;;;;;18.72;48.39;100569.39;1709058;83;21052;-79
2022/05/21 11:56:01;;;;;;;1.72;0.53;;;;;;;18.73;48.52;100577.75;1665976;85;21074;-79
2022/05/21 11:58:59;;;;;;;4.35;0.70;;;;;;;18.86;48.54;100560.52;1733977;82;21548;-82
2022/05/21 12:01:47;;;;;;;3.37;0.60;;;;;;;19.12;48.63;100553.41;1730592;82;21089;-77
2022/05/21 12:04:40;;;;;;;1.90;0.82;;;;;;;19.84;48.88;100568.66;1734246;82;21084;-78
2022/05/21 12:07:08;;;;;;;2.33;0.70;;;;;;;20.34;48.52;100564.53;1734347;82;21013;-78
2022/05/21 12:09:37;;;;;;;3.02;0.60;;;;;;;20.78;47.66;100555.00;1733573;80;21107;-79
2022/05/21 12:12:24;;;;;;;4.42;1.17;;;;;;;21.18;47.85;100554.57;1747040;81;21027;-82
2022/05/21 12:14:58;;;;;;;2.72;0.57;;;;;;;21.67;47.31;100545.31;1735795;81;21110;-81
2022/05/21 12:17:55;;;;;;;2.35;0.70;;;;;;;21.92;46.20;100542.36;1720538;83;22106;-80
2022/05/21 12:20:48;;;;;;;3.27;0.70;;;;;;;22.07;46.33;100539.39;1720640;83;21008;-79
2022/05/21 12:23:35;;;;;;;2.08;0.60;;;;;;;22.05;46.00;100551.02;1720408;82;21040;-80
2022/05/21 12:26:27;;;;;;;4.60;0.60;;;;;;;21.91;45.08;100553.98;1721051;83;21035;-79